sensor_id;sensor_type;location;lat;lon;timestamp;P1;durP1;ratioP1;P2;durP2;ratioP2
67798;SDS011;54596;43.216;27.904;2022-12-07T00:01:14;10.38;;;4.80;;
67798;SDS011;54596;43.216;27.904;2022-12-07T00:03:42;10.50;;;4.47;;
67798;SDS011;54596;43.216;27.904;2022-12-07T00:06:10;11.38;;;4.88;;
67798;SDS011;54596;43.216;27.904;2022-12-07T00:08:38;11.57;;;4.60;;
67798;SDS011;54596;43.216;27.904;2022-12-07T00:11:04;9.43;;;4.68;;
67798;SDS011;54596;43.216;27.904;2022-12-07T00:13:31;12.00;;;5.18;;
67798;SDS011;54596;43.216;27.904;2022-12-07T00:16:16;10.60;;;4.60;;
67798;SDS011;54596;43.216;27.904;2022-12-07T00:18:44;11.30;;;4.43;;
67798;SDS011;54596;43.216;27.904;2022-12-07T00:21:11;14.48;;;6.32;;
67798;SDS011;54596;43.216;27.904;2022-12-07T00:23:40;16.90;;;6.10;;
67798;SDS011;54596;43.216;27.904;2022-12-07T00:26:11;16.58;;;7.05;;
67798;SDS011;54596;43.216;27.904;2022-12-07T00:28:50;17.90;;;7.13;;
67798;SDS011;54596;43.216;27.904;2022-12-07T00:31:19;17.88;;;8.30;;
67798;SDS011;54596;43.216;27.904;2022-12-07T00:33:47;16.95;;;6.60;;
67798;SDS011;54596;43.216;27.904;2022-12-07T00:36:14;12.43;;;5.80;;
67798;SDS011;54596;43.216;27.904;2022-12-07T00:38:41;11.18;;;5.47;;
67798;SDS011;54596;43.216;27.904;2022-12-07T00:41:13;11.65;;;5.28;;
67798;SDS011;54596;43.216;27.904;2022-12-07T00:43:41;12.75;;;4.95;;
67798;SDS011;54596;43.216;27.904;2022-12-07T00:46:07;9.50;;;4.43;;
67798;SDS011;54596;43.216;27.904;2022-12-07T00:48:33;12.10;;;4.65;;
67798;SDS011;54596;43.216;27.904;2022-12-07T00:50:59;10.38;;;5.03;;
67798;SDS011;54596;43.216;27.904;2022-12-07T00:53:24;11.63;;;5.00;;
67798;SDS011;54596;43.216;27.904;2022-12-07T00:55:51;12.32;;;5.72;;
67798;SDS011;54596;43.216;27.904;2022-12-07T00:58:17;11.23;;;5.30;;
67798;SDS011;54596;43.216;27.904;2022-12-07T01:00:43;13.50;;;6.28;;
67798;SDS011;54596;43.216;27.904;2022-12-07T01:03:10;15.13;;;6.70;;
67798;SDS011;54596;43.216;27.904;2022-12-07T01:05:37;11.85;;;6.07;;
67798;SDS011;54596;43.216;27.904;2022-12-07T01:08:02;10.65;;;5.18;;
67798;SDS011;54596;43.216;27.904;2022-12-07T01:10:28;12.63;;;4.45;;
67798;SDS011;54596;43.216;27.904;2022-12-07T01:12:56;10.85;;;5.53;;
67798;SDS011;54596;43.216;27.904;2022-12-07T01:15:21;11.65;;;4.95;;
67798;SDS011;54596;43.216;27.904;2022-12-07T01:17:47;13.27;;;6.20;;
67798;SDS011;54596;43.216;27.904;2022-12-07T01:20:12;8.90;;;4.53;;
67798;SDS011;54596;43.216;27.904;2022-12-07T01:22:39;9.30;;;4.32;;
67798;SDS011;54596;43.216;27.904;2022-12-07T01:25:06;11.07;;;4.40;;
67798;SDS011;54596;43.216;27.904;2022-12-07T01:27:32;9.70;;;4.43;;
67798;SDS011;54596;43.216;27.904;2022-12-07T01:29:59;10.05;;;4.45;;
67798;SDS011;54596;43.216;27.904;2022-12-07T01:32:25;10.68;;;4.18;;
67798;SDS011;54596;43.216;27.904;2022-12-07T01:34:50;9.35;;;4.10;;
67798;SDS011;54596;43.216;27.904;2022-12-07T01:37:16;10.32;;;4.47;;
67798;SDS011;54596;43.216;27.904;2022-12-07T01:39:41;9.73;;;4.70;;
67798;SDS011;54596;43.216;27.904;2022-12-07T01:42:10;11.02;;;4.68;;
67798;SDS011;54596;43.216;27.904;2022-12-07T01:47:39;9.63;;;4.90;;
67798;SDS011;54596;43.216;27.904;2022-12-07T01:50:06;10.60;;;4.72;;
67798;SDS011;54596;43.216;27.904;2022-12-07T01:52:32;9.73;;;4.50;;
67798;SDS011;54596;43.216;27.904;2022-12-07T01:55:01;10.45;;;4.78;;
67798;SDS011;54596;43.216;27.904;2022-12-07T01:57:33;11.27;;;4.80;;
67798;SDS011;54596;43.216;27.904;2022-12-07T02:00:03;10.40;;;4.22;;
67798;SDS011;54596;43.216;27.904;2022-12-07T02:02:31;8.57;;;4.35;;
67798;SDS011;54596;43.216;27.904;2022-12-07T02:05:00;10.13;;;5.10;;
67798;SDS011;54596;43.216;27.904;2022-12-07T02:07:27;11.50;;;4.70;;
67798;SDS011;54596;43.216;27.904;2022-12-07T02:09:54;10.95;;;4.20;;
67798;SDS011;54596;43.216;27.904;2022-12-07T02:12:20;8.77;;;4.07;;
67798;SDS011;54596;43.216;27.904;2022-12-07T02:14:47;9.13;;;4.10;;
67798;SDS011;54596;43.216;27.904;2022-12-07T02:28:37;11.35;;;5.47;;
67798;SDS011;54596;43.216;27.904;2022-12-07T02:31:13;9.93;;;5.82;;
67798;SDS011;54596;43.216;27.904;2022-12-07T02:33:50;10.35;;;6.40;;
67798;SDS011;54596;43.216;27.904;2022-12-07T02:36:27;12.57;;;6.57;;
67798;SDS011;54596;43.216;27.904;2022-12-07T02:41:40;12.23;;;6.35;;
67798;SDS011;54596;43.216;27.904;2022-12-07T02:44:20;11.23;;;6.47;;
67798;SDS011;54596;43.216;27.904;2022-12-07T02:46:57;10.80;;;6.55;;
67798;SDS011;54596;43.216;27.904;2022-12-07T02:49:26;11.73;;;6.80;;
67798;SDS011;54596;43.216;27.904;2022-12-07T02:51:53;14.48;;;7.28;;
67798;SDS011;54596;43.216;27.904;2022-12-07T02:54:19;11.27;;;7.18;;
67798;SDS011;54596;43.216;27.904;2022-12-07T02:56:48;13.98;;;7.35;;
67798;SDS011;54596;43.216;27.904;2022-12-07T02:59:21;11.55;;;7.45;;
67798;SDS011;54596;43.216;27.904;2022-12-07T03:10:45;12.15;;;8.43;;
67798;SDS011;54596;43.216;27.904;2022-12-07T03:13:25;14.90;;;8.75;;
67798;SDS011;54596;43.216;27.904;2022-12-07T03:18:52;13.82;;;8.65;;
67798;SDS011;54596;43.216;27.904;2022-12-07T03:21:26;13.77;;;8.80;;
67798;SDS011;54596;43.216;27.904;2022-12-07T03:23:56;13.23;;;8.63;;
67798;SDS011;54596;43.216;27.904;2022-12-07T03:26:28;14.40;;;8.85;;
67798;SDS011;54596;43.216;27.904;2022-12-07T03:29:00;13.68;;;9.05;;
67798;SDS011;54596;43.216;27.904;2022-12-07T03:31:34;12.87;;;8.67;;
67798;SDS011;54596;43.216;27.904;2022-12-07T03:37:03;17.00;;;9.43;;
67798;SDS011;54596;43.216;27.904;2022-12-07T03:39:50;16.15;;;9.57;;
67798;SDS011;54596;43.216;27.904;2022-12-07T03:42:27;17.40;;;9.27;;
67798;SDS011;54596;43.216;27.904;2022-12-07T03:44:55;14.75;;;9.48;;
67798;SDS011;54596;43.216;27.904;2022-12-07T03:47:31;15.68;;;9.38;;
67798;SDS011;54596;43.216;27.904;2022-12-07T03:50:21;16.23;;;9.93;;
67798;SDS011;54596;43.216;27.904;2022-12-07T03:53:03;17.85;;;10.05;;
67798;SDS011;54596;43.216;27.904;2022-12-07T03:55:35;17.70;;;10.35;;
67798;SDS011;54596;43.216;27.904;2022-12-07T03:58:05;15.13;;;9.52;;
67798;SDS011;54596;43.216;27.904;2022-12-07T04:00:38;16.40;;;9.98;;
67798;SDS011;54596;43.216;27.904;2022-12-07T04:03:09;16.52;;;9.57;;
67798;SDS011;54596;43.216;27.904;2022-12-07T04:05:37;17.02;;;10.15;;
67798;SDS011;54596;43.216;27.904;2022-12-07T04:08:04;14.85;;;9.55;;
67798;SDS011;54596;43.216;27.904;2022-12-07T04:10:29;17.98;;;10.48;;
67798;SDS011;54596;43.216;27.904;2022-12-07T04:12:55;17.60;;;10.93;;
67798;SDS011;54596;43.216;27.904;2022-12-07T04:15:21;16.27;;;10.02;;
67798;SDS011;54596;43.216;27.904;2022-12-07T04:17:47;17.73;;;10.75;;
67798;SDS011;54596;43.216;27.904;2022-12-07T04:20:12;16.77;;;10.68;;
67798;SDS011;54596;43.216;27.904;2022-12-07T04:22:38;18.98;;;10.93;;
67798;SDS011;54596;43.216;27.904;2022-12-07T04:25:03;20.75;;;11.50;;
67798;SDS011;54596;43.216;27.904;2022-12-07T04:27:29;20.77;;;11.88;;
67798;SDS011;54596;43.216;27.904;2022-12-07T04:29:55;18.70;;;11.55;;
67798;SDS011;54596;43.216;27.904;2022-12-07T04:32:22;16.23;;;10.68;;
67798;SDS011;54596;43.216;27.904;2022-12-07T04:34:49;21.55;;;12.40;;
67798;SDS011;54596;43.216;27.904;2022-12-07T04:37:15;19.30;;;12.20;;
67798;SDS011;54596;43.216;27.904;2022-12-07T04:39:41;19.50;;;11.73;;
67798;SDS011;54596;43.216;27.904;2022-12-07T04:42:06;16.88;;;11.38;;
67798;SDS011;54596;43.216;27.904;2022-12-07T04:44:32;23.45;;;13.27;;
67798;SDS011;54596;43.216;27.904;2022-12-07T04:46:58;27.50;;;14.23;;
67798;SDS011;54596;43.216;27.904;2022-12-07T04:49:23;34.58;;;14.88;;
67798;SDS011;54596;43.216;27.904;2022-12-07T04:51:49;30.13;;;15.90;;
67798;SDS011;54596;43.216;27.904;2022-12-07T04:54:16;32.00;;;16.15;;
67798;SDS011;54596;43.216;27.904;2022-12-07T04:56:42;24.08;;;15.80;;
67798;SDS011;54596;43.216;27.904;2022-12-07T04:59:08;24.92;;;15.50;;
67798;SDS011;54596;43.216;27.904;2022-12-07T05:01:35;26.85;;;16.38;;
67798;SDS011;54596;43.216;27.904;2022-12-07T05:04:01;27.83;;;16.42;;
67798;SDS011;54596;43.216;27.904;2022-12-07T05:06:27;35.60;;;19.40;;
67798;SDS011;54596;43.216;27.904;2022-12-07T05:08:52;28.02;;;16.63;;
67798;SDS011;54596;43.216;27.904;2022-12-07T05:11:18;28.48;;;16.38;;
67798;SDS011;54596;43.216;27.904;2022-12-07T05:14:02;29.95;;;18.88;;
67798;SDS011;54596;43.216;27.904;2022-12-07T05:16:29;31.50;;;19.35;;
67798;SDS011;54596;43.216;27.904;2022-12-07T05:18:55;27.63;;;18.65;;
67798;SDS011;54596;43.216;27.904;2022-12-07T05:21:20;31.20;;;17.15;;
67798;SDS011;54596;43.216;27.904;2022-12-07T05:23:46;37.20;;;23.05;;
67798;SDS011;54596;43.216;27.904;2022-12-07T05:26:12;38.92;;;22.10;;
67798;SDS011;54596;43.216;27.904;2022-12-07T05:28:37;38.10;;;22.40;;
67798;SDS011;54596;43.216;27.904;2022-12-07T05:31:03;33.65;;;20.80;;
67798;SDS011;54596;43.216;27.904;2022-12-07T05:33:28;41.20;;;20.90;;
67798;SDS011;54596;43.216;27.904;2022-12-07T05:35:54;38.28;;;21.50;;
67798;SDS011;54596;43.216;27.904;2022-12-07T05:38:19;36.85;;;20.83;;
67798;SDS011;54596;43.216;27.904;2022-12-07T05:40:45;34.70;;;22.58;;
67798;SDS011;54596;43.216;27.904;2022-12-07T05:43:11;32.17;;;20.92;;
67798;SDS011;54596;43.216;27.904;2022-12-07T05:45:36;45.63;;;23.92;;
67798;SDS011;54596;43.216;27.904;2022-12-07T05:48:03;40.45;;;24.50;;
67798;SDS011;54596;43.216;27.904;2022-12-07T05:50:28;46.35;;;27.13;;
67798;SDS011;54596;43.216;27.904;2022-12-07T05:52:54;46.90;;;27.75;;
67798;SDS011;54596;43.216;27.904;2022-12-07T05:55:19;39.13;;;26.10;;
67798;SDS011;54596;43.216;27.904;2022-12-07T05:57:45;47.15;;;26.27;;
67798;SDS011;54596;43.216;27.904;2022-12-07T06:00:31;40.22;;;26.15;;
67798;SDS011;54596;43.216;27.904;2022-12-07T06:02:56;52.55;;;25.90;;
67798;SDS011;54596;43.216;27.904;2022-12-07T06:05:22;48.65;;;28.33;;
67798;SDS011;54596;43.216;27.904;2022-12-07T06:07:48;47.72;;;27.45;;
67798;SDS011;54596;43.216;27.904;2022-12-07T06:10:13;49.72;;;26.63;;
67798;SDS011;54596;43.216;27.904;2022-12-07T06:12:39;44.53;;;29.17;;
67798;SDS011;54596;43.216;27.904;2022-12-07T06:15:07;53.03;;;29.58;;
67798;SDS011;54596;43.216;27.904;2022-12-07T06:17:33;42.03;;;26.52;;
67798;SDS011;54596;43.216;27.904;2022-12-07T06:19:59;125.05;;;30.77;;
67798;SDS011;54596;43.216;27.904;2022-12-07T06:22:24;51.63;;;27.90;;
67798;SDS011;54596;43.216;27.904;2022-12-07T06:24:50;53.00;;;28.08;;
67798;SDS011;54596;43.216;27.904;2022-12-07T06:27:15;56.55;;;26.05;;
67798;SDS011;54596;43.216;27.904;2022-12-07T06:29:41;55.85;;;28.88;;
67798;SDS011;54596;43.216;27.904;2022-12-07T06:32:06;64.60;;;29.30;;
67798;SDS011;54596;43.216;27.904;2022-12-07T06:34:32;49.72;;;31.75;;
67798;SDS011;54596;43.216;27.904;2022-12-07T06:36:58;54.45;;;29.50;;
67798;SDS011;54596;43.216;27.904;2022-12-07T06:39:24;46.70;;;27.58;;
67798;SDS011;54596;43.216;27.904;2022-12-07T06:41:51;43.85;;;23.60;;
67798;SDS011;54596;43.216;27.904;2022-12-07T06:44:18;35.28;;;21.95;;
67798;SDS011;54596;43.216;27.904;2022-12-07T06:46:44;39.03;;;24.73;;
67798;SDS011;54596;43.216;27.904;2022-12-07T06:49:10;62.50;;;28.67;;
67798;SDS011;54596;43.216;27.904;2022-12-07T06:51:35;61.88;;;27.75;;
67798;SDS011;54596;43.216;27.904;2022-12-07T06:54:05;48.53;;;24.52;;
67798;SDS011;54596;43.216;27.904;2022-12-07T06:56:31;54.95;;;27.20;;
67798;SDS011;54596;43.216;27.904;2022-12-07T06:58:57;58.25;;;26.48;;
67798;SDS011;54596;43.216;27.904;2022-12-07T07:01:22;45.42;;;24.85;;
67798;SDS011;54596;43.216;27.904;2022-12-07T07:03:48;49.50;;;26.98;;
67798;SDS011;54596;43.216;27.904;2022-12-07T07:06:13;37.45;;;23.58;;
67798;SDS011;54596;43.216;27.904;2022-12-07T07:08:39;38.72;;;23.38;;
67798;SDS011;54596;43.216;27.904;2022-12-07T07:11:05;30.88;;;17.73;;
67798;SDS011;54596;43.216;27.904;2022-12-07T07:13:32;34.95;;;19.90;;
67798;SDS011;54596;43.216;27.904;2022-12-07T07:15:58;41.72;;;23.67;;
67798;SDS011;54596;43.216;27.904;2022-12-07T07:18:24;42.35;;;24.20;;
67798;SDS011;54596;43.216;27.904;2022-12-07T07:20:50;38.25;;;21.02;;
67798;SDS011;54596;43.216;27.904;2022-12-07T07:23:16;33.42;;;16.50;;
67798;SDS011;54596;43.216;27.904;2022-12-07T07:25:42;28.13;;;15.05;;
67798;SDS011;54596;43.216;27.904;2022-12-07T07:28:08;31.52;;;15.77;;
67798;SDS011;54596;43.216;27.904;2022-12-07T07:30:34;32.88;;;16.30;;
67798;SDS011;54596;43.216;27.904;2022-12-07T07:33:00;33.55;;;18.13;;
67798;SDS011;54596;43.216;27.904;2022-12-07T07:35:27;27.50;;;14.80;;
67798;SDS011;54596;43.216;27.904;2022-12-07T07:37:53;22.30;;;12.32;;
67798;SDS011;54596;43.216;27.904;2022-12-07T07:40:18;25.58;;;12.32;;
67798;SDS011;54596;43.216;27.904;2022-12-07T07:42:46;20.67;;;13.25;;
67798;SDS011;54596;43.216;27.904;2022-12-07T07:45:15;21.27;;;14.13;;
67798;SDS011;54596;43.216;27.904;2022-12-07T07:47:41;24.52;;;12.75;;
67798;SDS011;54596;43.216;27.904;2022-12-07T07:50:07;23.20;;;13.75;;
67798;SDS011;54596;43.216;27.904;2022-12-07T07:52:32;24.35;;;14.68;;
67798;SDS011;54596;43.216;27.904;2022-12-07T07:54:58;23.60;;;14.60;;
67798;SDS011;54596;43.216;27.904;2022-12-07T07:57:23;23.83;;;13.45;;
67798;SDS011;54596;43.216;27.904;2022-12-07T07:59:49;23.95;;;13.50;;
67798;SDS011;54596;43.216;27.904;2022-12-07T08:02:15;21.40;;;13.25;;
67798;SDS011;54596;43.216;27.904;2022-12-07T08:04:43;23.52;;;13.48;;
67798;SDS011;54596;43.216;27.904;2022-12-07T08:07:09;30.00;;;14.27;;
67798;SDS011;54596;43.216;27.904;2022-12-07T08:09:35;25.52;;;13.93;;
67798;SDS011;54596;43.216;27.904;2022-12-07T08:12:01;26.58;;;15.00;;
67798;SDS011;54596;43.216;27.904;2022-12-07T08:14:26;31.10;;;14.60;;
67798;SDS011;54596;43.216;27.904;2022-12-07T08:16:53;37.20;;;16.15;;
67798;SDS011;54596;43.216;27.904;2022-12-07T08:19:19;23.45;;;13.65;;
67798;SDS011;54596;43.216;27.904;2022-12-07T08:21:45;24.23;;;12.98;;
67798;SDS011;54596;43.216;27.904;2022-12-07T08:24:10;23.02;;;13.43;;
67798;SDS011;54596;43.216;27.904;2022-12-07T08:26:36;28.60;;;15.32;;
67798;SDS011;54596;43.216;27.904;2022-12-07T08:29:01;27.05;;;15.25;;
67798;SDS011;54596;43.216;27.904;2022-12-07T08:31:27;21.40;;;13.75;;
67798;SDS011;54596;43.216;27.904;2022-12-07T08:33:53;19.90;;;13.27;;
67798;SDS011;54596;43.216;27.904;2022-12-07T08:36:19;19.73;;;12.70;;
67798;SDS011;54596;43.216;27.904;2022-12-07T08:38:44;20.70;;;11.88;;
67798;SDS011;54596;43.216;27.904;2022-12-07T08:41:10;22.05;;;11.73;;
67798;SDS011;54596;43.216;27.904;2022-12-07T08:43:36;18.27;;;11.55;;
67798;SDS011;54596;43.216;27.904;2022-12-07T08:51:42;20.77;;;11.48;;
67798;SDS011;54596;43.216;27.904;2022-12-07T08:54:09;22.00;;;12.00;;
67798;SDS011;54596;43.216;27.904;2022-12-07T08:56:37;26.20;;;12.68;;
67798;SDS011;54596;43.216;27.904;2022-12-07T08:59:04;20.38;;;12.82;;
67798;SDS011;54596;43.216;27.904;2022-12-07T09:01:30;22.35;;;13.30;;
67798;SDS011;54596;43.216;27.904;2022-12-07T09:03:56;21.95;;;11.85;;
67798;SDS011;54596;43.216;27.904;2022-12-07T09:06:21;18.90;;;11.60;;
67798;SDS011;54596;43.216;27.904;2022-12-07T09:08:48;18.08;;;10.88;;
67798;SDS011;54596;43.216;27.904;2022-12-07T09:11:17;18.25;;;10.85;;
67798;SDS011;54596;43.216;27.904;2022-12-07T09:13:42;24.02;;;11.80;;
67798;SDS011;54596;43.216;27.904;2022-12-07T09:16:07;21.17;;;11.70;;
67798;SDS011;54596;43.216;27.904;2022-12-07T09:18:33;20.85;;;11.02;;
67798;SDS011;54596;43.216;27.904;2022-12-07T09:20:58;24.60;;;13.02;;
67798;SDS011;54596;43.216;27.904;2022-12-07T09:23:24;19.55;;;10.52;;
67798;SDS011;54596;43.216;27.904;2022-12-07T09:25:50;17.23;;;10.77;;
67798;SDS011;54596;43.216;27.904;2022-12-07T09:28:15;20.15;;;11.65;;
67798;SDS011;54596;43.216;27.904;2022-12-07T09:30:47;26.52;;;12.43;;
67798;SDS011;54596;43.216;27.904;2022-12-07T09:33:13;27.98;;;15.30;;
67798;SDS011;54596;43.216;27.904;2022-12-07T09:35:46;19.77;;;10.55;;
67798;SDS011;54596;43.216;27.904;2022-12-07T09:38:13;18.83;;;10.48;;
67798;SDS011;54596;43.216;27.904;2022-12-07T09:40:39;18.20;;;10.55;;
67798;SDS011;54596;43.216;27.904;2022-12-07T09:43:11;29.85;;;13.02;;
67798;SDS011;54596;43.216;27.904;2022-12-07T09:45:44;25.90;;;13.10;;
67798;SDS011;54596;43.216;27.904;2022-12-07T09:48:33;20.48;;;12.18;;
67798;SDS011;54596;43.216;27.904;2022-12-07T09:51:02;23.38;;;12.60;;
67798;SDS011;54596;43.216;27.904;2022-12-07T09:53:38;20.75;;;11.88;;
67798;SDS011;54596;43.216;27.904;2022-12-07T09:56:04;27.33;;;12.43;;
67798;SDS011;54596;43.216;27.904;2022-12-07T09:58:31;24.88;;;12.80;;
67798;SDS011;54596;43.216;27.904;2022-12-07T10:01:08;26.15;;;13.55;;
67798;SDS011;54596;43.216;27.904;2022-12-07T10:03:48;19.05;;;12.07;;
67798;SDS011;54596;43.216;27.904;2022-12-07T10:06:17;19.98;;;12.38;;
67798;SDS011;54596;43.216;27.904;2022-12-07T10:08:45;22.38;;;12.27;;
67798;SDS011;54596;43.216;27.904;2022-12-07T10:11:11;21.75;;;12.98;;
67798;SDS011;54596;43.216;27.904;2022-12-07T10:13:43;18.90;;;11.23;;
67798;SDS011;54596;43.216;27.904;2022-12-07T10:19:17;21.38;;;12.13;;
67798;SDS011;54596;43.216;27.904;2022-12-07T10:24:36;22.20;;;12.43;;
67798;SDS011;54596;43.216;27.904;2022-12-07T10:27:04;21.90;;;12.43;;
67798;SDS011;54596;43.216;27.904;2022-12-07T10:29:31;28.98;;;12.02;;
67798;SDS011;54596;43.216;27.904;2022-12-07T10:32:00;20.15;;;12.68;;
67798;SDS011;54596;43.216;27.904;2022-12-07T10:34:27;23.83;;;13.45;;
67798;SDS011;54596;43.216;27.904;2022-12-07T10:42:26;27.33;;;16.65;;
67798;SDS011;54596;43.216;27.904;2022-12-07T10:45:09;22.98;;;14.00;;
67798;SDS011;54596;43.216;27.904;2022-12-07T10:59:15;27.55;;;13.50;;
67798;SDS011;54596;43.216;27.904;2022-12-07T11:10:29;28.13;;;14.30;;
67798;SDS011;54596;43.216;27.904;2022-12-07T11:21:06;23.75;;;14.35;;
67798;SDS011;54596;43.216;27.904;2022-12-07T11:37:24;23.02;;;12.98;;
67798;SDS011;54596;43.216;27.904;2022-12-07T11:39:55;21.35;;;11.90;;
67798;SDS011;54596;43.216;27.904;2022-12-07T11:42:29;22.52;;;12.80;;
67798;SDS011;54596;43.216;27.904;2022-12-07T11:47:59;22.23;;;11.82;;
67798;SDS011;54596;43.216;27.904;2022-12-07T11:50:47;22.73;;;12.60;;
67798;SDS011;54596;43.216;27.904;2022-12-07T11:53:20;22.02;;;11.65;;
67798;SDS011;54596;43.216;27.904;2022-12-07T12:00:54;19.65;;;11.95;;
67798;SDS011;54596;43.216;27.904;2022-12-07T12:03:30;21.35;;;12.48;;
67798;SDS011;54596;43.216;27.904;2022-12-07T12:06:05;19.58;;;12.43;;
67798;SDS011;54596;43.216;27.904;2022-12-07T12:08:42;21.80;;;12.32;;
67798;SDS011;54596;43.216;27.904;2022-12-07T12:11:21;20.52;;;12.55;;
67798;SDS011;54596;43.216;27.904;2022-12-07T12:20:25;27.00;;;14.07;;
67798;SDS011;54596;43.216;27.904;2022-12-07T12:25:27;21.98;;;13.32;;
67798;SDS011;54596;43.216;27.904;2022-12-07T12:27:57;24.63;;;13.90;;
67798;SDS011;54596;43.216;27.904;2022-12-07T12:38:50;23.20;;;13.25;;
67798;SDS011;54596;43.216;27.904;2022-12-07T12:44:38;17.80;;;12.00;;
67798;SDS011;54596;43.216;27.904;2022-12-07T12:55:11;21.35;;;12.32;;
67798;SDS011;54596;43.216;27.904;2022-12-07T12:57:42;20.02;;;12.18;;
67798;SDS011;54596;43.216;27.904;2022-12-07T13:02:55;25.58;;;13.88;;
67798;SDS011;54596;43.216;27.904;2022-12-07T13:05:28;28.63;;;14.57;;
67798;SDS011;54596;43.216;27.904;2022-12-07T13:08:01;34.70;;;17.73;;
67798;SDS011;54596;43.216;27.904;2022-12-07T13:10:45;26.80;;;13.55;;
67798;SDS011;54596;43.216;27.904;2022-12-07T13:15:50;29.23;;;15.02;;
67798;SDS011;54596;43.216;27.904;2022-12-07T13:18:39;26.27;;;13.43;;
67798;SDS011;54596;43.216;27.904;2022-12-07T13:31:52;25.35;;;12.77;;
67798;SDS011;54596;43.216;27.904;2022-12-07T13:34:28;26.58;;;13.18;;
67798;SDS011;54596;43.216;27.904;2022-12-07T13:37:40;24.08;;;13.10;;
67798;SDS011;54596;43.216;27.904;2022-12-07T13:39:54;26.02;;;13.68;;
67798;SDS011;54596;43.216;27.904;2022-12-07T13:42:24;24.27;;;13.10;;
67798;SDS011;54596;43.216;27.904;2022-12-07T13:44:59;21.77;;;12.95;;
67798;SDS011;54596;43.216;27.904;2022-12-07T13:47:52;21.05;;;12.20;;
67798;SDS011;54596;43.216;27.904;2022-12-07T13:50:28;20.60;;;12.32;;
67798;SDS011;54596;43.216;27.904;2022-12-07T13:52:55;25.70;;;13.48;;
67798;SDS011;54596;43.216;27.904;2022-12-07T13:55:26;23.85;;;14.13;;
67798;SDS011;54596;43.216;27.904;2022-12-07T13:57:53;30.95;;;15.57;;
67798;SDS011;54596;43.216;27.904;2022-12-07T14:00:23;25.83;;;13.80;;
67798;SDS011;54596;43.216;27.904;2022-12-07T14:03:01;28.95;;;14.38;;
67798;SDS011;54596;43.216;27.904;2022-12-07T14:05:39;27.08;;;15.13;;
67798;SDS011;54596;43.216;27.904;2022-12-07T14:16:05;24.85;;;13.63;;
67798;SDS011;54596;43.216;27.904;2022-12-07T14:18:49;25.00;;;14.52;;
67798;SDS011;54596;43.216;27.904;2022-12-07T14:21:16;29.10;;;14.90;;
67798;SDS011;54596;43.216;27.904;2022-12-07T14:23:44;30.83;;;15.05;;
67798;SDS011;54596;43.216;27.904;2022-12-07T14:26:11;27.55;;;14.98;;
67798;SDS011;54596;43.216;27.904;2022-12-07T14:28:38;23.98;;;15.95;;
67798;SDS011;54596;43.216;27.904;2022-12-07T14:31:13;26.30;;;15.85;;
67798;SDS011;54596;43.216;27.904;2022-12-07T14:33:40;28.58;;;15.55;;
67798;SDS011;54596;43.216;27.904;2022-12-07T14:36:13;28.10;;;16.63;;
67798;SDS011;54596;43.216;27.904;2022-12-07T14:38:45;25.63;;;15.60;;
67798;SDS011;54596;43.216;27.904;2022-12-07T14:41:16;28.90;;;16.75;;
67798;SDS011;54596;43.216;27.904;2022-12-07T14:44:08;28.93;;;16.80;;
67798;SDS011;54596;43.216;27.904;2022-12-07T14:46:36;31.20;;;17.92;;
67798;SDS011;54596;43.216;27.904;2022-12-07T14:49:02;36.97;;;22.38;;
67798;SDS011;54596;43.216;27.904;2022-12-07T14:51:27;40.30;;;23.95;;
67798;SDS011;54596;43.216;27.904;2022-12-07T14:53:53;38.65;;;23.98;;
67798;SDS011;54596;43.216;27.904;2022-12-07T14:56:18;45.83;;;25.30;;
67798;SDS011;54596;43.216;27.904;2022-12-07T14:58:44;50.53;;;23.35;;
67798;SDS011;54596;43.216;27.904;2022-12-07T15:01:13;44.42;;;22.40;;
67798;SDS011;54596;43.216;27.904;2022-12-07T15:03:41;35.97;;;21.25;;
67798;SDS011;54596;43.216;27.904;2022-12-07T15:06:07;45.42;;;21.15;;
67798;SDS011;54596;43.216;27.904;2022-12-07T15:08:38;36.08;;;18.42;;
67798;SDS011;54596;43.216;27.904;2022-12-07T15:11:03;26.80;;;17.50;;
67798;SDS011;54596;43.216;27.904;2022-12-07T15:13:29;29.08;;;17.30;;
67798;SDS011;54596;43.216;27.904;2022-12-07T15:16:13;34.53;;;19.25;;
67798;SDS011;54596;43.216;27.904;2022-12-07T15:18:45;67.88;;;41.65;;
67798;SDS011;54596;43.216;27.904;2022-12-07T15:21:14;72.03;;;45.75;;
67798;SDS011;54596;43.216;27.904;2022-12-07T15:23:40;50.28;;;34.88;;
67798;SDS011;54596;43.216;27.904;2022-12-07T15:26:06;72.68;;;55.95;;
67798;SDS011;54596;43.216;27.904;2022-12-07T15:28:32;36.85;;;21.73;;
67798;SDS011;54596;43.216;27.904;2022-12-07T15:30:58;49.55;;;33.45;;
67798;SDS011;54596;43.216;27.904;2022-12-07T15:33:24;43.08;;;31.02;;
67798;SDS011;54596;43.216;27.904;2022-12-07T15:35:51;65.38;;;41.70;;
67798;SDS011;54596;43.216;27.904;2022-12-07T15:38:17;47.42;;;28.83;;
67798;SDS011;54596;43.216;27.904;2022-12-07T15:40:42;39.80;;;24.25;;
67798;SDS011;54596;43.216;27.904;2022-12-07T15:43:11;46.17;;;25.13;;
67798;SDS011;54596;43.216;27.904;2022-12-07T15:45:55;46.05;;;26.20;;
67798;SDS011;54596;43.216;27.904;2022-12-07T15:48:20;42.63;;;23.08;;
67798;SDS011;54596;43.216;27.904;2022-12-07T15:50:46;48.80;;;26.95;;
67798;SDS011;54596;43.216;27.904;2022-12-07T15:53:11;41.08;;;21.67;;
67798;SDS011;54596;43.216;27.904;2022-12-07T15:55:40;45.67;;;26.33;;
67798;SDS011;54596;43.216;27.904;2022-12-07T15:58:06;45.20;;;27.65;;
67798;SDS011;54596;43.216;27.904;2022-12-07T16:00:32;40.50;;;23.67;;
67798;SDS011;54596;43.216;27.904;2022-12-07T16:02:58;37.20;;;21.33;;
67798;SDS011;54596;43.216;27.904;2022-12-07T16:05:23;36.55;;;20.88;;
67798;SDS011;54596;43.216;27.904;2022-12-07T16:07:49;32.42;;;20.17;;
67798;SDS011;54596;43.216;27.904;2022-12-07T16:10:14;37.28;;;21.08;;
67798;SDS011;54596;43.216;27.904;2022-12-07T16:12:40;39.78;;;24.73;;
67798;SDS011;54596;43.216;27.904;2022-12-07T16:15:06;43.70;;;26.33;;
67798;SDS011;54596;43.216;27.904;2022-12-07T16:17:32;33.15;;;20.58;;
67798;SDS011;54596;43.216;27.904;2022-12-07T16:19:57;26.55;;;17.92;;
67798;SDS011;54596;43.216;27.904;2022-12-07T16:22:23;27.30;;;18.02;;
67798;SDS011;54596;43.216;27.904;2022-12-07T16:24:48;27.60;;;18.38;;
67798;SDS011;54596;43.216;27.904;2022-12-07T16:27:14;31.88;;;18.90;;
67798;SDS011;54596;43.216;27.904;2022-12-07T16:29:39;30.63;;;18.20;;
67798;SDS011;54596;43.216;27.904;2022-12-07T16:32:05;32.88;;;18.92;;
67798;SDS011;54596;43.216;27.904;2022-12-07T16:34:31;30.65;;;20.73;;
67798;SDS011;54596;43.216;27.904;2022-12-07T16:36:57;51.30;;;34.40;;
67798;SDS011;54596;43.216;27.904;2022-12-07T16:39:23;29.45;;;20.42;;
67798;SDS011;54596;43.216;27.904;2022-12-07T16:41:49;46.50;;;39.40;;
67798;SDS011;54596;43.216;27.904;2022-12-07T16:44:16;34.63;;;25.73;;
67798;SDS011;54596;43.216;27.904;2022-12-07T16:46:41;33.22;;;22.70;;
67798;SDS011;54596;43.216;27.904;2022-12-07T16:49:11;33.55;;;20.27;;
67798;SDS011;54596;43.216;27.904;2022-12-07T16:51:40;30.88;;;20.40;;
67798;SDS011;54596;43.216;27.904;2022-12-07T16:54:09;35.92;;;27.02;;